sensor_id;sensor_type;location;lat;lon;timestamp;temperature;humidity
831;DHT22;397;50.564;7.272;2023-11-22T00:02:07;7.00;99.90
831;DHT22;397;50.564;7.272;2023-11-22T00:04:35;7.00;99.90
831;DHT22;397;50.564;7.272;2023-11-22T00:07:02;7.00;99.90
831;DHT22;397;50.564;7.272;2023-11-22T00:09:29;7.10;99.90
831;DHT22;397;50.564;7.272;2023-11-22T00:11:58;7.00;99.90
831;DHT22;397;50.564;7.272;2023-11-22T00:14:26;6.90;99.90
831;DHT22;397;50.564;7.272;2023-11-22T00:16:54;6.90;99.90
831;DHT22;397;50.564;7.272;2023-11-22T00:19:21;6.80;99.90
831;DHT22;397;50.564;7.272;2023-11-22T00:21:49;6.90;99.90
831;DHT22;397;50.564;7.272;2023-11-22T00:24:17;6.90;99.90
831;DHT22;397;50.564;7.272;2023-11-22T00:26:44;6.90;99.90
831;DHT22;397;50.564;7.272;2023-11-22T00:29:12;6.90;99.90
831;DHT22;397;50.564;7.272;2023-11-22T00:31:40;6.90;99.90
831;DHT22;397;50.564;7.272;2023-11-22T00:34:07;6.90;99.90
831;DHT22;397;50.564;7.272;2023-11-22T00:36:35;7.00;99.90
831;DHT22;397;50.564;7.272;2023-11-22T00:39:02;7.00;99.90
831;DHT22;397;50.564;7.272;2023-11-22T00:41:31;7.00;99.90
831;DHT22;397;50.564;7.272;2023-11-22T00:43:59;7.00;99.90
831;DHT22;397;50.564;7.272;2023-11-22T00:46:26;6.90;99.90
831;DHT22;397;50.564;7.272;2023-11-22T00:48:53;6.90;99.90
831;DHT22;397;50.564;7.272;2023-11-22T00:51:22;6.80;99.90
831;DHT22;397;50.564;7.272;2023-11-22T00:53:50;6.90;99.90
831;DHT22;397;50.564;7.272;2023-11-22T00:56:18;6.80;99.90
831;DHT22;397;50.564;7.272;2023-11-22T00:58:46;6.80;99.90
831;DHT22;397;50.564;7.272;2023-11-22T01:01:15;6.90;99.90
831;DHT22;397;50.564;7.272;2023-11-22T01:03:44;6.90;99.90
831;DHT22;397;50.564;7.272;2023-11-22T01:06:13;6.80;99.90
831;DHT22;397;50.564;7.272;2023-11-22T01:08:41;6.70;99.90
831;DHT22;397;50.564;7.272;2023-11-22T01:11:09;6.70;99.90
831;DHT22;397;50.564;7.272;2023-11-22T01:13:36;6.70;99.90
831;DHT22;397;50.564;7.272;2023-11-22T01:16:06;6.70;99.90
831;DHT22;397;50.564;7.272;2023-11-22T01:18:34;6.70;99.90
831;DHT22;397;50.564;7.272;2023-11-22T01:21:02;6.70;99.90
831;DHT22;397;50.564;7.272;2023-11-22T01:23:31;6.80;99.90
831;DHT22;397;50.564;7.272;2023-11-22T01:25:59;6.80;99.90
831;DHT22;397;50.564;7.272;2023-11-22T01:28:27;6.80;99.90
831;DHT22;397;50.564;7.272;2023-11-22T01:30:55;6.70;99.90
831;DHT22;397;50.564;7.272;2023-11-22T01:33:22;6.70;99.90
831;DHT22;397;50.564;7.272;2023-11-22T01:35:50;6.60;99.90
831;DHT22;397;50.564;7.272;2023-11-22T01:38:17;6.70;99.90
831;DHT22;397;50.564;7.272;2023-11-22T01:40:46;6.60;99.90
831;DHT22;397;50.564;7.272;2023-11-22T01:43:20;6.60;99.90
831;DHT22;397;50.564;7.272;2023-11-22T01:45:50;6.60;99.90
831;DHT22;397;50.564;7.272;2023-11-22T01:48:17;6.60;99.90
831;DHT22;397;50.564;7.272;2023-11-22T01:50:45;6.60;99.90
831;DHT22;397;50.564;7.272;2023-11-22T01:53:13;6.70;99.90
831;DHT22;397;50.564;7.272;2023-11-22T01:55:43;6.70;99.90
831;DHT22;397;50.564;7.272;2023-11-22T01:58:11;6.70;99.90
831;DHT22;397;50.564;7.272;2023-11-22T02:00:50;6.60;99.90
831;DHT22;397;50.564;7.272;2023-11-22T02:03:19;6.60;99.90
831;DHT22;397;50.564;7.272;2023-11-22T02:05:47;6.60;99.90
831;DHT22;397;50.564;7.272;2023-11-22T02:08:15;6.60;99.90
831;DHT22;397;50.564;7.272;2023-11-22T02:10:45;6.70;99.90
831;DHT22;397;50.564;7.272;2023-11-22T02:13:14;6.70;99.90
831;DHT22;397;50.564;7.272;2023-11-22T02:15:41;6.80;99.90
831;DHT22;397;50.564;7.272;2023-11-22T02:18:09;6.70;99.90
831;DHT22;397;50.564;7.272;2023-11-22T02:20:36;6.70;99.90
831;DHT22;397;50.564;7.272;2023-11-22T02:23:10;6.60;99.90
831;DHT22;397;50.564;7.272;2023-11-22T02:25:38;6.70;99.90
831;DHT22;397;50.564;7.272;2023-11-22T02:28:05;6.60;99.90
831;DHT22;397;50.564;7.272;2023-11-22T02:30:35;6.60;99.90
831;DHT22;397;50.564;7.272;2023-11-22T02:33:02;6.60;99.90
831;DHT22;397;50.564;7.272;2023-11-22T02:35:32;6.60;99.90
831;DHT22;397;50.564;7.272;2023-11-22T02:38:00;6.60;99.90
831;DHT22;397;50.564;7.272;2023-11-22T02:40:28;6.60;99.90
831;DHT22;397;50.564;7.272;2023-11-22T02:42:55;6.60;99.90
831;DHT22;397;50.564;7.272;2023-11-22T02:45:27;6.60;99.90
831;DHT22;397;50.564;7.272;2023-11-22T02:47:55;6.50;99.90
831;DHT22;397;50.564;7.272;2023-11-22T02:50:23;6.50;99.90
831;DHT22;397;50.564;7.272;2023-11-22T02:52:52;6.60;99.90
831;DHT22;397;50.564;7.272;2023-11-22T02:55:19;6.60;99.90
831;DHT22;397;50.564;7.272;2023-11-22T02:57:47;6.50;99.90
831;DHT22;397;50.564;7.272;2023-11-22T03:00:15;6.60;99.90
831;DHT22;397;50.564;7.272;2023-11-22T03:02:42;6.60;99.90
831;DHT22;397;50.564;7.272;2023-11-22T03:05:10;6.60;99.90
831;DHT22;397;50.564;7.272;2023-11-22T03:07:38;6.70;99.90
831;DHT22;397;50.564;7.272;2023-11-22T03:10:06;6.60;99.90
831;DHT22;397;50.564;7.272;2023-11-22T03:12:34;6.60;99.90
831;DHT22;397;50.564;7.272;2023-11-22T03:15:10;6.60;99.90
831;DHT22;397;50.564;7.272;2023-11-22T03:17:38;6.50;99.90
831;DHT22;397;50.564;7.272;2023-11-22T03:20:08;6.50;99.90
831;DHT22;397;50.564;7.272;2023-11-22T03:22:37;6.50;99.90
831;DHT22;397;50.564;7.272;2023-11-22T03:25:05;6.50;99.90
831;DHT22;397;50.564;7.272;2023-11-22T03:27:35;6.50;99.90
831;DHT22;397;50.564;7.272;2023-11-22T03:30:03;6.60;99.90
831;DHT22;397;50.564;7.272;2023-11-22T03:32:31;6.60;99.90
831;DHT22;397;50.564;7.272;2023-11-22T03:35:00;6.60;99.90
831;DHT22;397;50.564;7.272;2023-11-22T03:37:28;6.50;99.90
831;DHT22;397;50.564;7.272;2023-11-22T03:39:55;6.50;99.90
831;DHT22;397;50.564;7.272;2023-11-22T03:42:23;6.60;99.90
831;DHT22;397;50.564;7.272;2023-11-22T03:44:50;6.50;99.90
831;DHT22;397;50.564;7.272;2023-11-22T03:47:18;6.50;99.90
831;DHT22;397;50.564;7.272;2023-11-22T03:49:45;6.50;99.90
831;DHT22;397;50.564;7.272;2023-11-22T03:52:13;6.50;99.90
831;DHT22;397;50.564;7.272;2023-11-22T03:54:43;6.60;99.90
831;DHT22;397;50.564;7.272;2023-11-22T03:57:11;6.60;99.90
831;DHT22;397;50.564;7.272;2023-11-22T03:59:40;6.60;99.90
831;DHT22;397;50.564;7.272;2023-11-22T04:02:09;6.50;99.90
831;DHT22;397;50.564;7.272;2023-11-22T04:04:37;6.50;99.90
831;DHT22;397;50.564;7.272;2023-11-22T04:07:07;6.50;99.90
831;DHT22;397;50.564;7.272;2023-11-22T04:09:35;6.50;99.90
831;DHT22;397;50.564;7.272;2023-11-22T04:12:02;6.50;99.90
831;DHT22;397;50.564;7.272;2023-11-22T04:14:30;6.50;99.90
831;DHT22;397;50.564;7.272;2023-11-22T04:16:58;6.40;99.90
831;DHT22;397;50.564;7.272;2023-11-22T04:19:25;6.50;99.90
831;DHT22;397;50.564;7.272;2023-11-22T04:21:53;6.50;99.90
831;DHT22;397;50.564;7.272;2023-11-22T04:24:20;6.50;99.90
831;DHT22;397;50.564;7.272;2023-11-22T04:26:48;6.50;99.90
831;DHT22;397;50.564;7.272;2023-11-22T04:29:16;6.40;99.90
831;DHT22;397;50.564;7.272;2023-11-22T04:31:44;6.40;99.90
831;DHT22;397;50.564;7.272;2023-11-22T04:34:11;6.40;99.90
831;DHT22;397;50.564;7.272;2023-11-22T04:36:39;6.50;99.90
831;DHT22;397;50.564;7.272;2023-11-22T04:39:06;6.40;99.90
831;DHT22;397;50.564;7.272;2023-11-22T04:41:34;6.40;99.90
831;DHT22;397;50.564;7.272;2023-11-22T04:44:02;6.40;99.90
831;DHT22;397;50.564;7.272;2023-11-22T04:46:29;6.50;99.90
831;DHT22;397;50.564;7.272;2023-11-22T04:48:58;6.40;99.90
831;DHT22;397;50.564;7.272;2023-11-22T04:51:26;6.40;99.90
831;DHT22;397;50.564;7.272;2023-11-22T04:53:55;6.40;99.90
831;DHT22;397;50.564;7.272;2023-11-22T04:56:22;6.40;99.90
831;DHT22;397;50.564;7.272;2023-11-22T04:58:50;6.40;99.90
831;DHT22;397;50.564;7.272;2023-11-22T05:01:17;6.30;99.90
831;DHT22;397;50.564;7.272;2023-11-22T05:03:45;6.30;99.90
831;DHT22;397;50.564;7.272;2023-11-22T05:06:13;6.30;99.90
831;DHT22;397;50.564;7.272;2023-11-22T05:08:41;6.20;99.90
831;DHT22;397;50.564;7.272;2023-11-22T05:11:08;6.20;99.90
831;DHT22;397;50.564;7.272;2023-11-22T05:13:36;6.20;99.90
831;DHT22;397;50.564;7.272;2023-11-22T05:16:04;6.20;99.90
831;DHT22;397;50.564;7.272;2023-11-22T05:18:31;6.10;99.90
831;DHT22;397;50.564;7.272;2023-11-22T05:20:59;6.10;99.90
831;DHT22;397;50.564;7.272;2023-11-22T05:23:26;6.00;99.90
831;DHT22;397;50.564;7.272;2023-11-22T05:25:54;6.00;99.90
831;DHT22;397;50.564;7.272;2023-11-22T05:28:24;5.90;99.90
831;DHT22;397;50.564;7.272;2023-11-22T05:30:51;5.90;99.90
831;DHT22;397;50.564;7.272;2023-11-22T05:33:19;5.80;99.90
831;DHT22;397;50.564;7.272;2023-11-22T05:35:46;5.80;99.90
831;DHT22;397;50.564;7.272;2023-11-22T05:38:14;5.70;99.90
831;DHT22;397;50.564;7.272;2023-11-22T05:40:42;5.70;99.90
831;DHT22;397;50.564;7.272;2023-11-22T05:43:10;5.60;99.90
831;DHT22;397;50.564;7.272;2023-11-22T05:45:37;5.60;99.90
831;DHT22;397;50.564;7.272;2023-11-22T05:48:05;5.60;99.90
831;DHT22;397;50.564;7.272;2023-11-22T05:50:32;5.60;99.90
831;DHT22;397;50.564;7.272;2023-11-22T05:53:00;5.50;99.90
831;DHT22;397;50.564;7.272;2023-11-22T05:55:27;5.40;99.90
831;DHT22;397;50.564;7.272;2023-11-22T05:57:55;5.40;99.90
831;DHT22;397;50.564;7.272;2023-11-22T06:00:23;5.30;99.90
831;DHT22;397;50.564;7.272;2023-11-22T06:02:50;5.30;99.90
831;DHT22;397;50.564;7.272;2023-11-22T06:05:18;5.20;99.90
831;DHT22;397;50.564;7.272;2023-11-22T06:07:46;5.30;99.90
831;DHT22;397;50.564;7.272;2023-11-22T06:10:14;5.20;99.90
831;DHT22;397;50.564;7.272;2023-11-22T06:12:42;5.00;99.90
831;DHT22;397;50.564;7.272;2023-11-22T06:15:10;5.10;99.90
831;DHT22;397;50.564;7.272;2023-11-22T06:17:38;5.10;99.90
831;DHT22;397;50.564;7.272;2023-11-22T06:20:06;5.10;99.90
831;DHT22;397;50.564;7.272;2023-11-22T06:22:35;5.10;99.90
831;DHT22;397;50.564;7.272;2023-11-22T06:25:05;5.10;99.90
831;DHT22;397;50.564;7.272;2023-11-22T06:27:33;4.90;99.90
831;DHT22;397;50.564;7.272;2023-11-22T06:30:00;5.00;99.90
831;DHT22;397;50.564;7.272;2023-11-22T06:32:28;5.00;99.90
831;DHT22;397;50.564;7.272;2023-11-22T06:34:55;5.00;99.90
831;DHT22;397;50.564;7.272;2023-11-22T06:37:23;4.90;99.90
831;DHT22;397;50.564;7.272;2023-11-22T06:39:50;4.90;99.90
831;DHT22;397;50.564;7.272;2023-11-22T06:42:18;4.90;99.90
831;DHT22;397;50.564;7.272;2023-11-22T06:44:48;5.00;99.90
831;DHT22;397;50.564;7.272;2023-11-22T06:47:17;4.90;99.90
831;DHT22;397;50.564;7.272;2023-11-22T06:49:44;4.90;99.90
831;DHT22;397;50.564;7.272;2023-11-22T06:52:12;4.90;99.90
831;DHT22;397;50.564;7.272;2023-11-22T06:54:40;4.70;99.90
831;DHT22;397;50.564;7.272;2023-11-22T06:57:08;4.70;99.90
831;DHT22;397;50.564;7.272;2023-11-22T06:59:35;4.80;99.90
831;DHT22;397;50.564;7.272;2023-11-22T07:02:03;4.70;99.90
831;DHT22;397;50.564;7.272;2023-11-22T07:04:30;4.60;99.90
831;DHT22;397;50.564;7.272;2023-11-22T07:06:58;4.50;99.90
831;DHT22;397;50.564;7.272;2023-11-22T07:09:27;4.50;99.90
831;DHT22;397;50.564;7.272;2023-11-22T07:11:55;4.40;99.90
831;DHT22;397;50.564;7.272;2023-11-22T07:14:24;4.30;99.90
831;DHT22;397;50.564;7.272;2023-11-22T07:16:51;4.40;99.90
831;DHT22;397;50.564;7.272;2023-11-22T07:19:19;4.20;99.90
831;DHT22;397;50.564;7.272;2023-11-22T07:21:46;4.20;99.90
831;DHT22;397;50.564;7.272;2023-11-22T07:24:14;4.20;99.90
831;DHT22;397;50.564;7.272;2023-11-22T07:26:42;4.20;99.90
831;DHT22;397;50.564;7.272;2023-11-22T07:29:10;4.20;99.90
831;DHT22;397;50.564;7.272;2023-11-22T07:31:39;4.20;99.90
831;DHT22;397;50.564;7.272;2023-11-22T07:34:07;4.10;99.90
831;DHT22;397;50.564;7.272;2023-11-22T07:36:36;4.00;99.90
831;DHT22;397;50.564;7.272;2023-11-22T07:39:05;3.90;99.90
831;DHT22;397;50.564;7.272;2023-11-22T07:41:33;3.80;99.90
831;DHT22;397;50.564;7.272;2023-11-22T07:44:01;3.70;99.90
831;DHT22;397;50.564;7.272;2023-11-22T07:46:28;3.60;99.90
831;DHT22;397;50.564;7.272;2023-11-22T07:48:56;3.60;99.90
831;DHT22;397;50.564;7.272;2023-11-22T07:51:24;3.60;99.90
831;DHT22;397;50.564;7.272;2023-11-22T07:53:51;3.70;99.90
831;DHT22;397;50.564;7.272;2023-11-22T07:56:19;3.70;99.90
831;DHT22;397;50.564;7.272;2023-11-22T07:58:47;3.80;99.90
831;DHT22;397;50.564;7.272;2023-11-22T08:01:14;3.90;99.90
831;DHT22;397;50.564;7.272;2023-11-22T08:03:42;4.00;99.90
831;DHT22;397;50.564;7.272;2023-11-22T08:06:11;4.00;99.90
831;DHT22;397;50.564;7.272;2023-11-22T08:08:39;4.00;99.90
831;DHT22;397;50.564;7.272;2023-11-22T08:11:07;4.10;99.90
831;DHT22;397;50.564;7.272;2023-11-22T08:13:36;4.20;99.90
831;DHT22;397;50.564;7.272;2023-11-22T08:16:04;4.10;99.90
831;DHT22;397;50.564;7.272;2023-11-22T08:18:32;4.20;99.90
831;DHT22;397;50.564;7.272;2023-11-22T08:21:01;4.40;99.90
831;DHT22;397;50.564;7.272;2023-11-22T08:23:28;4.50;99.90
831;DHT22;397;50.564;7.272;2023-11-22T08:25:58;4.70;99.90
831;DHT22;397;50.564;7.272;2023-11-22T08:28:26;4.60;99.90
831;DHT22;397;50.564;7.272;2023-11-22T08:30:55;4.60;99.90
831;DHT22;397;50.564;7.272;2023-11-22T08:33:23;4.80;99.90
831;DHT22;397;50.564;7.272;2023-11-22T08:35:50;4.80;99.90
831;DHT22;397;50.564;7.272;2023-11-22T08:38:19;4.80;99.90
831;DHT22;397;50.564;7.272;2023-11-22T08:40:47;4.90;99.90
831;DHT22;397;50.564;7.272;2023-11-22T08:43:14;5.00;99.90
831;DHT22;397;50.564;7.272;2023-11-22T08:45:42;5.00;99.90
831;DHT22;397;50.564;7.272;2023-11-22T08:48:10;5.10;99.90
831;DHT22;397;50.564;7.272;2023-11-22T08:50:37;5.10;99.90
831;DHT22;397;50.564;7.272;2023-11-22T08:53:05;5.20;99.90
831;DHT22;397;50.564;7.272;2023-11-22T08:55:33;5.20;99.90
831;DHT22;397;50.564;7.272;2023-11-22T08:58:01;5.30;99.90
831;DHT22;397;50.564;7.272;2023-11-22T09:00:28;5.40;99.90
831;DHT22;397;50.564;7.272;2023-11-22T09:02:57;5.40;99.90
831;DHT22;397;50.564;7.272;2023-11-22T09:05:25;5.40;99.90
831;DHT22;397;50.564;7.272;2023-11-22T09:07:54;5.40;99.90
831;DHT22;397;50.564;7.272;2023-11-22T09:10:25;5.40;99.90
831;DHT22;397;50.564;7.272;2023-11-22T09:12:53;5.50;99.90
831;DHT22;397;50.564;7.272;2023-11-22T09:15:20;5.50;99.90
831;DHT22;397;50.564;7.272;2023-11-22T09:17:50;5.50;99.90
831;DHT22;397;50.564;7.272;2023-11-22T09:20:19;5.60;99.90
831;DHT22;397;50.564;7.272;2023-11-22T09:22:48;5.70;99.90
831;DHT22;397;50.564;7.272;2023-11-22T09:25:20;5.80;99.90
831;DHT22;397;50.564;7.272;2023-11-22T09:27:51;5.90;99.90
831;DHT22;397;50.564;7.272;2023-11-22T09:30:21;5.90;99.90
831;DHT22;397;50.564;7.272;2023-11-22T09:33:09;5.90;99.90
831;DHT22;397;50.564;7.272;2023-11-22T09:35:37;5.70;99.90
831;DHT22;397;50.564;7.272;2023-11-22T09:38:07;5.60;99.90
831;DHT22;397;50.564;7.272;2023-11-22T09:40:41;5.60;99.90
831;DHT22;397;50.564;7.272;2023-11-22T09:43:13;5.50;99.90
831;DHT22;397;50.564;7.272;2023-11-22T09:45:45;5.40;99.90
831;DHT22;397;50.564;7.272;2023-11-22T09:48:17;5.40;99.90
831;DHT22;397;50.564;7.272;2023-11-22T09:51:02;5.50;99.90
831;DHT22;397;50.564;7.272;2023-11-22T09:53:36;5.50;99.90
831;DHT22;397;50.564;7.272;2023-11-22T09:56:04;5.40;99.90
831;DHT22;397;50.564;7.272;2023-11-22T09:58:34;5.50;99.90
831;DHT22;397;50.564;7.272;2023-11-22T10:01:03;5.50;99.90
831;DHT22;397;50.564;7.272;2023-11-22T10:03:30;5.50;99.90
831;DHT22;397;50.564;7.272;2023-11-22T10:05:59;5.50;99.90
831;DHT22;397;50.564;7.272;2023-11-22T10:08:28;5.60;99.90
831;DHT22;397;50.564;7.272;2023-11-22T10:10:59;5.70;99.90
831;DHT22;397;50.564;7.272;2023-11-22T10:13:27;5.70;99.90
831;DHT22;397;50.564;7.272;2023-11-22T10:15:54;5.60;99.90
831;DHT22;397;50.564;7.272;2023-11-22T10:18:22;5.70;99.90
831;DHT22;397;50.564;7.272;2023-11-22T10:20:51;5.80;99.90
831;DHT22;397;50.564;7.272;2023-11-22T10:23:19;5.90;99.90
831;DHT22;397;50.564;7.272;2023-11-22T10:25:50;5.90;99.90
831;DHT22;397;50.564;7.272;2023-11-22T10:28:19;5.90;99.90
831;DHT22;397;50.564;7.272;2023-11-22T10:30:48;5.80;99.90
831;DHT22;397;50.564;7.272;2023-11-22T10:33:16;5.80;99.90
831;DHT22;397;50.564;7.272;2023-11-22T10:35:47;5.80;99.90
831;DHT22;397;50.564;7.272;2023-11-22T10:38:17;5.80;99.90
831;DHT22;397;50.564;7.272;2023-11-22T10:40:46;5.90;99.90
831;DHT22;397;50.564;7.272;2023-11-22T10:43:15;5.80;99.90
831;DHT22;397;50.564;7.272;2023-11-22T10:45:44;5.90;99.90
831;DHT22;397;50.564;7.272;2023-11-22T10:48:15;5.90;99.90
831;DHT22;397;50.564;7.272;2023-11-22T10:50:44;5.90;99.90
831;DHT22;397;50.564;7.272;2023-11-22T10:53:13;6.00;99.90
831;DHT22;397;50.564;7.272;2023-11-22T10:55:49;5.90;99.90
831;DHT22;397;50.564;7.272;2023-11-22T10:58:19;5.80;99.90
831;DHT22;397;50.564;7.272;2023-11-22T11:00:47;5.80;99.90
831;DHT22;397;50.564;7.272;2023-11-22T11:03:20;5.90;99.90
831;DHT22;397;50.564;7.272;2023-11-22T11:05:56;6.00;99.90
831;DHT22;397;50.564;7.272;2023-11-22T11:08:25;6.00;99.90
831;DHT22;397;50.564;7.272;2023-11-22T11:10:54;6.00;99.90
831;DHT22;397;50.564;7.272;2023-11-22T11:13:25;6.10;99.90
831;DHT22;397;50.564;7.272;2023-11-22T11:15:53;6.10;99.90
831;DHT22;397;50.564;7.272;2023-11-22T11:18:22;6.10;99.90
831;DHT22;397;50.564;7.272;2023-11-22T11:20:56;6.10;99.90
831;DHT22;397;50.564;7.272;2023-11-22T11:23:26;6.30;99.90
831;DHT22;397;50.564;7.272;2023-11-22T11:25:55;6.30;99.90
831;DHT22;397;50.564;7.272;2023-11-22T11:28:24;6.50;99.90
831;DHT22;397;50.564;7.272;2023-11-22T11:30:54;6.40;99.90
831;DHT22;397;50.564;7.272;2023-11-22T11:33:26;6.40;99.90
831;DHT22;397;50.564;7.272;2023-11-22T11:35:56;6.40;99.90
831;DHT22;397;50.564;7.272;2023-11-22T11:38:31;6.40;99.90
831;DHT22;397;50.564;7.272;2023-11-22T11:41:10;6.40;99.90
831;DHT22;397;50.564;7.272;2023-11-22T11:43:45;6.50;99.90
831;DHT22;397;50.564;7.272;2023-11-22T11:46:18;6.60;99.90
831;DHT22;397;50.564;7.272;2023-11-22T11:48:49;6.60;99.90
831;DHT22;397;50.564;7.272;2023-11-22T11:51:22;6.60;99.90
831;DHT22;397;50.564;7.272;2023-11-22T11:53:50;6.60;99.90
831;DHT22;397;50.564;7.272;2023-11-22T11:56:18;6.60;99.90
831;DHT22;397;50.564;7.272;2023-11-22T11:58:47;6.60;99.90
831;DHT22;397;50.564;7.272;2023-11-22T12:01:16;6.70;99.90
831;DHT22;397;50.564;7.272;2023-11-22T12:03:46;6.70;99.90
831;DHT22;397;50.564;7.272;2023-11-22T12:06:17;6.60;99.90
831;DHT22;397;50.564;7.272;2023-11-22T12:08:46;6.60;99.90
831;DHT22;397;50.564;7.272;2023-11-22T12:11:14;6.60;99.90
831;DHT22;397;50.564;7.272;2023-11-22T12:13:44;6.60;99.90
831;DHT22;397;50.564;7.272;2023-11-22T12:16:16;6.60;99.90
831;DHT22;397;50.564;7.272;2023-11-22T12:18:45;6.60;99.90
831;DHT22;397;50.564;7.272;2023-11-22T12:21:15;6.60;99.90
831;DHT22;397;50.564;7.272;2023-11-22T12:23:43;6.60;99.90
831;DHT22;397;50.564;7.272;2023-11-22T12:26:15;6.60;99.90
831;DHT22;397;50.564;7.272;2023-11-22T12:28:46;6.60;99.90
831;DHT22;397;50.564;7.272;2023-11-22T12:31:15;6.60;99.90
831;DHT22;397;50.564;7.272;2023-11-22T12:33:44;6.60;99.90
831;DHT22;397;50.564;7.272;2023-11-22T12:36:13;6.50;99.90
831;DHT22;397;50.564;7.272;2023-11-22T12:38:43;6.60;99.90
831;DHT22;397;50.564;7.272;2023-11-22T12:41:11;6.60;99.90
831;DHT22;397;50.564;7.272;2023-11-22T12:43:38;6.50;99.90
831;DHT22;397;50.564;7.272;2023-11-22T12:46:07;6.40;99.90
831;DHT22;397;50.564;7.272;2023-11-22T12:48:40;6.40;99.90
831;DHT22;397;50.564;7.272;2023-11-22T12:51:15;6.40;99.90
831;DHT22;397;50.564;7.272;2023-11-22T12:53:47;6.50;99.90
831;DHT22;397;50.564;7.272;2023-11-22T12:56:16;6.30;99.90
831;DHT22;397;50.564;7.272;2023-11-22T12:58:43;6.20;99.90
831;DHT22;397;50.564;7.272;2023-11-22T13:01:11;6.30;99.90
831;DHT22;397;50.564;7.272;2023-11-22T13:03:38;6.30;99.90
831;DHT22;397;50.564;7.272;2023-11-22T13:06:06;6.20;99.90
831;DHT22;397;50.564;7.272;2023-11-22T13:08:33;6.40;99.90
831;DHT22;397;50.564;7.272;2023-11-22T13:11:02;6.40;99.90
831;DHT22;397;50.564;7.272;2023-11-22T13:13:30;6.40;99.90
831;DHT22;397;50.564;7.272;2023-11-22T13:15:58;6.40;99.90
831;DHT22;397;50.564;7.272;2023-11-22T13:18:26;6.30;99.90
831;DHT22;397;50.564;7.272;2023-11-22T13:20:54;6.40;99.90
831;DHT22;397;50.564;7.272;2023-11-22T13:23:22;6.40;99.90
831;DHT22;397;50.564;7.272;2023-11-22T13:25:49;6.40;99.90
831;DHT22;397;50.564;7.272;2023-11-22T13:28:17;6.40;99.90
831;DHT22;397;50.564;7.272;2023-11-22T13:30:44;6.40;99.90
831;DHT22;397;50.564;7.272;2023-11-22T13:33:12;6.40;99.90
831;DHT22;397;50.564;7.272;2023-11-22T13:35:39;6.30;99.90
831;DHT22;397;50.564;7.272;2023-11-22T13:38:07;6.40;99.90
831;DHT22;397;50.564;7.272;2023-11-22T13:40:36;6.50;99.90
831;DHT22;397;50.564;7.272;2023-11-22T13:43:06;6.50;99.90
831;DHT22;397;50.564;7.272;2023-11-22T13:45:35;6.50;99.90
831;DHT22;397;50.564;7.272;2023-11-22T13:48:05;6.60;99.90
831;DHT22;397;50.564;7.272;2023-11-22T13:50:33;6.50;99.90
831;DHT22;397;50.564;7.272;2023-11-22T13:53:01;6.60;99.90
831;DHT22;397;50.564;7.272;2023-11-22T13:55:31;6.50;99.90
831;DHT22;397;50.564;7.272;2023-11-22T13:57:59;6.50;99.90
831;DHT22;397;50.564;7.272;2023-11-22T14:00:29;6.40;99.90
831;DHT22;397;50.564;7.272;2023-11-22T14:03:02;6.40;99.90
831;DHT22;397;50.564;7.272;2023-11-22T14:05:35;6.40;99.90
831;DHT22;397;50.564;7.272;2023-11-22T14:08:04;6.40;99.90
831;DHT22;397;50.564;7.272;2023-11-22T14:10:33;6.40;99.90
831;DHT22;397;50.564;7.272;2023-11-22T14:13:01;6.50;99.90
831;DHT22;397;50.564;7.272;2023-11-22T14:15:30;6.50;99.90
831;DHT22;397;50.564;7.272;2023-11-22T14:17:58;6.60;99.90
831;DHT22;397;50.564;7.272;2023-11-22T14:20:26;6.60;99.90
831;DHT22;397;50.564;7.272;2023-11-22T14:22:55;6.70;99.90
831;DHT22;397;50.564;7.272;2023-11-22T14:25:23;6.60;99.90
831;DHT22;397;50.564;7.272;2023-11-22T14:27:51;6.60;99.90
831;DHT22;397;50.564;7.272;2023-11-22T14:30:20;6.60;99.90
831;DHT22;397;50.564;7.272;2023-11-22T14:32:48;6.60;99.90
831;DHT22;397;50.564;7.272;2023-11-22T14:35:17;6.50;99.90
831;DHT22;397;50.564;7.272;2023-11-22T14:37:44;6.50;99.90
831;DHT22;397;50.564;7.272;2023-11-22T14:40:12;6.50;99.90
831;DHT22;397;50.564;7.272;2023-11-22T14:42:44;6.40;99.90
831;DHT22;397;50.564;7.272;2023-11-22T14:45:13;6.40;99.90
831;DHT22;397;50.564;7.272;2023-11-22T14:47:41;6.40;99.90
831;DHT22;397;50.564;7.272;2023-11-22T14:50:10;6.40;99.90
831;DHT22;397;50.564;7.272;2023-11-22T14:52:38;6.40;99.90
831;DHT22;397;50.564;7.272;2023-11-22T14:55:07;6.30;99.90
831;DHT22;397;50.564;7.272;2023-11-22T14:57:36;6.30;99.90
831;DHT22;397;50.564;7.272;2023-11-22T15:00:08;6.30;99.90
831;DHT22;397;50.564;7.272;2023-11-22T15:02:37;6.30;99.90
831;DHT22;397;50.564;7.272;2023-11-22T15:05:05;6.30;99.90
831;DHT22;397;50.564;7.272;2023-11-22T15:07:36;6.30;99.90
831;DHT22;397;50.564;7.272;2023-11-22T15:10:06;6.30;99.90
831;DHT22;397;50.564;7.272;2023-11-22T15:12:34;6.30;99.90
831;DHT22;397;50.564;7.272;2023-11-22T15:15:02;6.10;99.90
831;DHT22;397;50.564;7.272;2023-11-22T15:17:29;6.00;99.90
831;DHT22;397;50.564;7.272;2023-11-22T15:19:58;6.00;99.90
831;DHT22;397;50.564;7.272;2023-11-22T15:22:25;6.10;99.90
831;DHT22;397;50.564;7.272;2023-11-22T15:24:53;6.00;99.90
831;DHT22;397;50.564;7.272;2023-11-22T15:27:20;6.00;99.90
831;DHT22;397;50.564;7.272;2023-11-22T15:29:48;6.00;99.90
831;DHT22;397;50.564;7.272;2023-11-22T15:32:15;6.00;99.90
831;DHT22;397;50.564;7.272;2023-11-22T15:34:43;6.00;99.90
831;DHT22;397;50.564;7.272;2023-11-22T15:37:10;6.00;99.90
831;DHT22;397;50.564;7.272;2023-11-22T15:39:38;6.00;99.90
831;DHT22;397;50.564;7.272;2023-11-22T15:42:06;6.00;99.90
831;DHT22;397;50.564;7.272;2023-11-22T15:44:34;6.00;99.90
831;DHT22;397;50.564;7.272;2023-11-22T15:47:02;6.00;99.90
831;DHT22;397;50.564;7.272;2023-11-22T15:49:31;6.10;99.90
831;DHT22;397;50.564;7.272;2023-11-22T15:51:59;6.10;99.90
831;DHT22;397;50.564;7.272;2023-11-22T15:54:27;6.10;99.90
831;DHT22;397;50.564;7.272;2023-11-22T15:56:54;6.10;99.90
831;DHT22;397;50.564;7.272;2023-11-22T15:59:22;6.00;99.90
831;DHT22;397;50.564;7.272;2023-11-22T16:01:49;6.00;99.90
831;DHT22;397;50.564;7.272;2023-11-22T16:04:17;5.90;99.90
831;DHT22;397;50.564;7.272;2023-11-22T16:06:44;5.80;99.90
831;DHT22;397;50.564;7.272;2023-11-22T16:09:14;5.80;99.90
831;DHT22;397;50.564;7.272;2023-11-22T16:11:41;5.70;99.90
831;DHT22;397;50.564;7.272;2023-11-22T16:14:09;5.70;99.90
831;DHT22;397;50.564;7.272;2023-11-22T16:16:38;5.60;99.90
831;DHT22;397;50.564;7.272;2023-11-22T16:19:06;5.50;99.90
831;DHT22;397;50.564;7.272;2023-11-22T16:21:33;5.50;99.90
831;DHT22;397;50.564;7.272;2023-11-22T16:24:01;5.50;99.90
831;DHT22;397;50.564;7.272;2023-11-22T16:26:29;5.40;99.90
831;DHT22;397;50.564;7.272;2023-11-22T16:28:56;5.50;99.90
831;DHT22;397;50.564;7.272;2023-11-22T16:31:24;5.40;99.90
831;DHT22;397;50.564;7.272;2023-11-22T16:33:52;5.50;99.90
831;DHT22;397;50.564;7.272;2023-11-22T16:36:21;5.40;99.90
831;DHT22;397;50.564;7.272;2023-11-22T16:38:50;5.40;99.90
831;DHT22;397;50.564;7.272;2023-11-22T16:41:18;5.40;99.90
831;DHT22;397;50.564;7.272;2023-11-22T16:43:47;5.50;99.90
831;DHT22;397;50.564;7.272;2023-11-22T16:46:15;5.50;99.90
831;DHT22;397;50.564;7.272;2023-11-22T16:48:42;5.50;99.90
831;DHT22;397;50.564;7.272;2023-11-22T16:51:10;5.50;99.90
831;DHT22;397;50.564;7.272;2023-11-22T16:53:39;5.50;99.90
831;DHT22;397;50.564;7.272;2023-11-22T16:56:11;5.50;99.90
831;DHT22;397;50.564;7.272;2023-11-22T16:58:38;5.50;99.90
831;DHT22;397;50.564;7.272;2023-11-22T17:01:06;5.50;99.90